sensor_id;sensor_type;location;lat;lon;timestamp;P1;durP1;ratioP1;P2;durP2;ratioP2
11016;SDS011;54687;50.800;6.772;2022-07-01T00:00:35;4.28;;;3.75;;
11016;SDS011;54687;50.800;6.772;2022-07-01T00:03:01;4.18;;;3.67;;
11016;SDS011;54687;50.800;6.772;2022-07-01T00:05:29;4.43;;;4.03;;
11016;SDS011;54687;50.800;6.772;2022-07-01T00:07:55;4.30;;;4.00;;
11016;SDS011;54687;50.800;6.772;2022-07-01T00:10:22;4.50;;;4.03;;
11016;SDS011;54687;50.800;6.772;2022-07-01T00:12:48;3.90;;;3.60;;
11016;SDS011;54687;50.800;6.772;2022-07-01T00:15:16;5.03;;;3.47;;
11016;SDS011;54687;50.800;6.772;2022-07-01T00:17:43;4.95;;;3.40;;
11016;SDS011;54687;50.800;6.772;2022-07-01T00:20:10;8.27;;;3.35;;
11016;SDS011;54687;50.800;6.772;2022-07-01T00:22:36;3.25;;;3.05;;
11016;SDS011;54687;50.800;6.772;2022-07-01T00:25:04;3.22;;;2.95;;
11016;SDS011;54687;50.800;6.772;2022-07-01T00:27:32;3.25;;;2.95;;
11016;SDS011;54687;50.800;6.772;2022-07-01T00:29:58;3.03;;;2.75;;
11016;SDS011;54687;50.800;6.772;2022-07-01T00:32:27;3.25;;;2.95;;
11016;SDS011;54687;50.800;6.772;2022-07-01T00:34:54;3.42;;;3.05;;
11016;SDS011;54687;50.800;6.772;2022-07-01T00:37:24;6.10;;;2.95;;
11016;SDS011;54687;50.800;6.772;2022-07-01T00:39:51;3.53;;;3.00;;
11016;SDS011;54687;50.800;6.772;2022-07-01T00:42:20;6.00;;;2.92;;
11016;SDS011;54687;50.800;6.772;2022-07-01T00:44:47;7.70;;;2.80;;
11016;SDS011;54687;50.800;6.772;2022-07-01T00:47:15;4.55;;;3.25;;
11016;SDS011;54687;50.800;6.772;2022-07-01T00:49:44;4.13;;;3.10;;
11016;SDS011;54687;50.800;6.772;2022-07-01T00:52:11;5.47;;;3.15;;
11016;SDS011;54687;50.800;6.772;2022-07-01T00:54:38;4.13;;;2.80;;
11016;SDS011;54687;50.800;6.772;2022-07-01T00:57:07;3.00;;;2.75;;
11016;SDS011;54687;50.800;6.772;2022-07-01T00:59:35;4.55;;;2.92;;
11016;SDS011;54687;50.800;6.772;2022-07-01T01:02:03;5.65;;;3.40;;
11016;SDS011;54687;50.800;6.772;2022-07-01T01:04:32;4.45;;;3.15;;
11016;SDS011;54687;50.800;6.772;2022-07-01T01:07:02;3.95;;;2.88;;
11016;SDS011;54687;50.800;6.772;2022-07-01T01:09:29;3.10;;;2.80;;
11016;SDS011;54687;50.800;6.772;2022-07-01T01:11:56;3.13;;;2.90;;
11016;SDS011;54687;50.800;6.772;2022-07-01T01:14:28;4.32;;;2.95;;
11016;SDS011;54687;50.800;6.772;2022-07-01T01:16:56;4.25;;;2.75;;
11016;SDS011;54687;50.800;6.772;2022-07-01T01:19:22;4.35;;;3.00;;
11016;SDS011;54687;50.800;6.772;2022-07-01T01:21:51;3.63;;;2.80;;
11016;SDS011;54687;50.800;6.772;2022-07-01T01:24:18;3.08;;;2.72;;
11016;SDS011;54687;50.800;6.772;2022-07-01T01:26:45;3.88;;;2.78;;
11016;SDS011;54687;50.800;6.772;2022-07-01T01:29:12;4.35;;;2.78;;
11016;SDS011;54687;50.800;6.772;2022-07-01T01:31:38;2.55;;;2.20;;
11016;SDS011;54687;50.800;6.772;2022-07-01T01:34:09;5.18;;;2.40;;
11016;SDS011;54687;50.800;6.772;2022-07-01T01:36:36;3.63;;;2.08;;
11016;SDS011;54687;50.800;6.772;2022-07-01T01:39:04;2.17;;;2.08;;
11016;SDS011;54687;50.800;6.772;2022-07-01T01:41:35;3.60;;;2.30;;
11016;SDS011;54687;50.800;6.772;2022-07-01T01:44:04;4.43;;;2.10;;
11016;SDS011;54687;50.800;6.772;2022-07-01T01:46:31;3.10;;;1.98;;
11016;SDS011;54687;50.800;6.772;2022-07-01T01:48:57;3.60;;;2.17;;
11016;SDS011;54687;50.800;6.772;2022-07-01T01:51:24;3.50;;;2.15;;
11016;SDS011;54687;50.800;6.772;2022-07-01T01:53:50;3.33;;;1.90;;
11016;SDS011;54687;50.800;6.772;2022-07-01T01:56:18;3.80;;;2.00;;
11016;SDS011;54687;50.800;6.772;2022-07-01T01:58:45;3.42;;;2.05;;
11016;SDS011;54687;50.800;6.772;2022-07-01T02:01:11;2.47;;;1.70;;
11016;SDS011;54687;50.800;6.772;2022-07-01T02:03:39;6.80;;;2.05;;
11016;SDS011;54687;50.800;6.772;2022-07-01T02:06:06;6.57;;;2.35;;
11016;SDS011;54687;50.800;6.772;2022-07-01T02:08:34;2.45;;;2.00;;
11016;SDS011;54687;50.800;6.772;2022-07-01T02:11:01;2.30;;;2.10;;
11016;SDS011;54687;50.800;6.772;2022-07-01T02:13:29;3.63;;;2.00;;
11016;SDS011;54687;50.800;6.772;2022-07-01T02:15:57;3.38;;;1.90;;
11016;SDS011;54687;50.800;6.772;2022-07-01T02:18:23;3.38;;;1.98;;
11016;SDS011;54687;50.800;6.772;2022-07-01T02:20:50;5.50;;;1.70;;
11016;SDS011;54687;50.800;6.772;2022-07-01T02:23:17;3.22;;;2.00;;
11016;SDS011;54687;50.800;6.772;2022-07-01T02:25:44;3.53;;;1.90;;
11016;SDS011;54687;50.800;6.772;2022-07-01T02:28:11;5.28;;;1.92;;
11016;SDS011;54687;50.800;6.772;2022-07-01T02:30:39;2.53;;;1.63;;
11016;SDS011;54687;50.800;6.772;2022-07-01T02:33:06;2.45;;;1.70;;
11016;SDS011;54687;50.800;6.772;2022-07-01T02:35:34;5.15;;;1.88;;
11016;SDS011;54687;50.800;6.772;2022-07-01T02:38:00;3.55;;;1.90;;
11016;SDS011;54687;50.800;6.772;2022-07-01T02:40:27;7.25;;;1.92;;
11016;SDS011;54687;50.800;6.772;2022-07-01T02:42:53;4.35;;;1.80;;
11016;SDS011;54687;50.800;6.772;2022-07-01T02:45:20;3.25;;;1.45;;
11016;SDS011;54687;50.800;6.772;2022-07-01T02:47:48;2.53;;;1.65;;
11016;SDS011;54687;50.800;6.772;2022-07-01T02:50:14;3.20;;;1.25;;
11016;SDS011;54687;50.800;6.772;2022-07-01T02:52:41;4.10;;;1.65;;
11016;SDS011;54687;50.800;6.772;2022-07-01T02:55:08;6.43;;;1.60;;
11016;SDS011;54687;50.800;6.772;2022-07-01T02:57:35;2.95;;;1.73;;
11016;SDS011;54687;50.800;6.772;2022-07-01T03:00:02;6.68;;;2.05;;
11016;SDS011;54687;50.800;6.772;2022-07-01T03:02:31;3.40;;;1.67;;
11016;SDS011;54687;50.800;6.772;2022-07-01T03:04:59;3.13;;;1.65;;
11016;SDS011;54687;50.800;6.772;2022-07-01T03:07:25;4.25;;;1.85;;
11016;SDS011;54687;50.800;6.772;2022-07-01T03:09:52;3.30;;;1.52;;
11016;SDS011;54687;50.800;6.772;2022-07-01T03:12:19;3.10;;;1.50;;
11016;SDS011;54687;50.800;6.772;2022-07-01T03:14:53;2.78;;;1.38;;
11016;SDS011;54687;50.800;6.772;2022-07-01T03:17:19;3.88;;;1.52;;
11016;SDS011;54687;50.800;6.772;2022-07-01T03:19:46;3.58;;;1.73;;
11016;SDS011;54687;50.800;6.772;2022-07-01T03:22:14;4.28;;;1.92;;
11016;SDS011;54687;50.800;6.772;2022-07-01T03:24:40;3.45;;;1.50;;
11016;SDS011;54687;50.800;6.772;2022-07-01T03:27:07;1.52;;;1.40;;
11016;SDS011;54687;50.800;6.772;2022-07-01T03:29:33;3.90;;;1.60;;
11016;SDS011;54687;50.800;6.772;2022-07-01T03:32:00;10.05;;;2.42;;
11016;SDS011;54687;50.800;6.772;2022-07-01T03:34:26;3.97;;;2.08;;
11016;SDS011;54687;50.800;6.772;2022-07-01T03:36:53;4.32;;;1.40;;
11016;SDS011;54687;50.800;6.772;2022-07-01T03:39:20;3.67;;;1.65;;
11016;SDS011;54687;50.800;6.772;2022-07-01T03:41:47;4.32;;;2.05;;
11016;SDS011;54687;50.800;6.772;2022-07-01T03:44:13;3.30;;;1.40;;
11016;SDS011;54687;50.800;6.772;2022-07-01T03:46:40;5.78;;;1.80;;
11016;SDS011;54687;50.800;6.772;2022-07-01T03:49:06;3.28;;;1.42;;
11016;SDS011;54687;50.800;6.772;2022-07-01T03:51:33;2.83;;;1.67;;
11016;SDS011;54687;50.800;6.772;2022-07-01T03:54:00;3.22;;;1.80;;
11016;SDS011;54687;50.800;6.772;2022-07-01T03:56:45;4.00;;;2.00;;
11016;SDS011;54687;50.800;6.772;2022-07-01T03:59:12;6.22;;;1.95;;
11016;SDS011;54687;50.800;6.772;2022-07-01T04:01:38;5.93;;;2.22;;
11016;SDS011;54687;50.800;6.772;2022-07-01T04:04:05;6.15;;;2.13;;
11016;SDS011;54687;50.800;6.772;2022-07-01T04:06:31;4.97;;;1.85;;
11016;SDS011;54687;50.800;6.772;2022-07-01T04:08:57;7.93;;;1.80;;
11016;SDS011;54687;50.800;6.772;2022-07-01T04:11:24;7.30;;;2.15;;
11016;SDS011;54687;50.800;6.772;2022-07-01T04:13:52;4.50;;;1.75;;
11016;SDS011;54687;50.800;6.772;2022-07-01T04:16:18;2.95;;;1.77;;
11016;SDS011;54687;50.800;6.772;2022-07-01T04:18:45;4.43;;;1.90;;
11016;SDS011;54687;50.800;6.772;2022-07-01T04:21:12;9.20;;;2.03;;
11016;SDS011;54687;50.800;6.772;2022-07-01T04:23:56;10.70;;;2.58;;
11016;SDS011;54687;50.800;6.772;2022-07-01T04:26:23;5.97;;;2.10;;
11016;SDS011;54687;50.800;6.772;2022-07-01T04:28:50;10.02;;;2.25;;
11016;SDS011;54687;50.800;6.772;2022-07-01T04:31:17;5.80;;;2.20;;
11016;SDS011;54687;50.800;6.772;2022-07-01T04:33:44;3.28;;;1.90;;
11016;SDS011;54687;50.800;6.772;2022-07-01T04:36:11;4.10;;;2.55;;
11016;SDS011;54687;50.800;6.772;2022-07-01T04:38:37;4.43;;;2.00;;
11016;SDS011;54687;50.800;6.772;2022-07-01T04:41:04;6.68;;;2.17;;
11016;SDS011;54687;50.800;6.772;2022-07-01T04:43:48;7.75;;;2.20;;
11016;SDS011;54687;50.800;6.772;2022-07-01T04:46:14;8.45;;;2.00;;
11016;SDS011;54687;50.800;6.772;2022-07-01T04:48:43;6.07;;;2.20;;
11016;SDS011;54687;50.800;6.772;2022-07-01T04:51:09;7.88;;;2.42;;
11016;SDS011;54687;50.800;6.772;2022-07-01T04:53:35;3.92;;;2.10;;
11016;SDS011;54687;50.800;6.772;2022-07-01T04:56:02;3.92;;;2.20;;
11016;SDS011;54687;50.800;6.772;2022-07-01T04:58:28;6.13;;;2.13;;
11016;SDS011;54687;50.800;6.772;2022-07-01T05:00:55;4.45;;;2.20;;
11016;SDS011;54687;50.800;6.772;2022-07-01T05:03:21;3.40;;;2.13;;
11016;SDS011;54687;50.800;6.772;2022-07-01T05:05:49;5.55;;;2.40;;
11016;SDS011;54687;50.800;6.772;2022-07-01T05:08:15;4.63;;;1.95;;
11016;SDS011;54687;50.800;6.772;2022-07-01T05:10:42;7.43;;;2.10;;
11016;SDS011;54687;50.800;6.772;2022-07-01T05:13:08;4.95;;;2.50;;
11016;SDS011;54687;50.800;6.772;2022-07-01T05:15:35;6.63;;;2.33;;
11016;SDS011;54687;50.800;6.772;2022-07-01T05:18:01;5.68;;;2.05;;
11016;SDS011;54687;50.800;6.772;2022-07-01T05:20:45;4.55;;;2.22;;
11016;SDS011;54687;50.800;6.772;2022-07-01T05:23:45;6.30;;;1.95;;
11016;SDS011;54687;50.800;6.772;2022-07-01T05:26:11;6.93;;;2.20;;
11016;SDS011;54687;50.800;6.772;2022-07-01T05:28:41;4.15;;;1.75;;
11016;SDS011;54687;50.800;6.772;2022-07-01T05:31:07;3.95;;;2.20;;
11016;SDS011;54687;50.800;6.772;2022-07-01T05:33:34;6.22;;;2.67;;
11016;SDS011;54687;50.800;6.772;2022-07-01T05:36:00;6.20;;;1.95;;
11016;SDS011;54687;50.800;6.772;2022-07-01T05:38:27;6.50;;;2.10;;
11016;SDS011;54687;50.800;6.772;2022-07-01T05:40:55;4.70;;;1.80;;
11016;SDS011;54687;50.800;6.772;2022-07-01T05:43:21;3.95;;;2.22;;
11016;SDS011;54687;50.800;6.772;2022-07-01T05:45:47;7.28;;;1.90;;
11016;SDS011;54687;50.800;6.772;2022-07-01T05:48:14;4.57;;;2.17;;
11016;SDS011;54687;50.800;6.772;2022-07-01T05:50:40;3.65;;;2.20;;
11016;SDS011;54687;50.800;6.772;2022-07-01T05:53:08;4.18;;;2.30;;
11016;SDS011;54687;50.800;6.772;2022-07-01T05:55:34;4.38;;;2.13;;
11016;SDS011;54687;50.800;6.772;2022-07-01T05:58:02;3.13;;;2.33;;
11016;SDS011;54687;50.800;6.772;2022-07-01T06:00:29;2.72;;;1.70;;
11016;SDS011;54687;50.800;6.772;2022-07-01T06:02:55;4.43;;;2.20;;
11016;SDS011;54687;50.800;6.772;2022-07-01T06:05:21;5.65;;;2.38;;
11016;SDS011;54687;50.800;6.772;2022-07-01T06:07:48;3.90;;;1.70;;
11016;SDS011;54687;50.800;6.772;2022-07-01T06:10:14;4.25;;;2.28;;
11016;SDS011;54687;50.800;6.772;2022-07-01T06:12:41;4.78;;;2.10;;
11016;SDS011;54687;50.800;6.772;2022-07-01T06:15:10;2.13;;;1.90;;
11016;SDS011;54687;50.800;6.772;2022-07-01T06:17:37;4.30;;;2.50;;
11016;SDS011;54687;50.800;6.772;2022-07-01T06:20:04;3.72;;;2.00;;
11016;SDS011;54687;50.800;6.772;2022-07-01T06:22:31;3.90;;;1.80;;
11016;SDS011;54687;50.800;6.772;2022-07-01T06:24:58;5.60;;;2.00;;
11016;SDS011;54687;50.800;6.772;2022-07-01T06:27:24;2.45;;;1.70;;
11016;SDS011;54687;50.800;6.772;2022-07-01T06:29:51;3.30;;;2.03;;
11016;SDS011;54687;50.800;6.772;2022-07-01T06:32:18;2.50;;;1.77;;
11016;SDS011;54687;50.800;6.772;2022-07-01T06:34:45;4.35;;;1.98;;
11016;SDS011;54687;50.800;6.772;2022-07-01T06:37:11;6.18;;;1.80;;
11016;SDS011;54687;50.800;6.772;2022-07-01T06:39:38;5.47;;;1.65;;
11016;SDS011;54687;50.800;6.772;2022-07-01T06:42:05;2.60;;;1.45;;
11016;SDS011;54687;50.800;6.772;2022-07-01T06:44:31;3.03;;;1.58;;
11016;SDS011;54687;50.800;6.772;2022-07-01T06:46:58;3.38;;;1.60;;
11016;SDS011;54687;50.800;6.772;2022-07-01T06:49:25;3.78;;;2.03;;
11016;SDS011;54687;50.800;6.772;2022-07-01T06:51:52;2.58;;;1.70;;
11016;SDS011;54687;50.800;6.772;2022-07-01T06:54:18;2.55;;;1.80;;
11016;SDS011;54687;50.800;6.772;2022-07-01T06:56:45;2.35;;;1.70;;
11016;SDS011;54687;50.800;6.772;2022-07-01T06:59:11;2.53;;;1.48;;
11016;SDS011;54687;50.800;6.772;2022-07-01T07:01:40;1.73;;;1.50;;
11016;SDS011;54687;50.800;6.772;2022-07-01T07:04:06;2.88;;;1.70;;
11016;SDS011;54687;50.800;6.772;2022-07-01T07:06:34;3.08;;;1.52;;
11016;SDS011;54687;50.800;6.772;2022-07-01T07:09:00;2.70;;;1.60;;
11016;SDS011;54687;50.800;6.772;2022-07-01T07:11:27;2.55;;;1.45;;
11016;SDS011;54687;50.800;6.772;2022-07-01T07:13:53;1.83;;;1.15;;
11016;SDS011;54687;50.800;6.772;2022-07-01T07:16:19;2.80;;;1.52;;
11016;SDS011;54687;50.800;6.772;2022-07-01T07:18:47;3.03;;;1.50;;
11016;SDS011;54687;50.800;6.772;2022-07-01T07:21:13;1.77;;;1.45;;
11016;SDS011;54687;50.800;6.772;2022-07-01T07:23:41;4.18;;;1.50;;
11016;SDS011;54687;50.800;6.772;2022-07-01T07:26:08;2.30;;;2.10;;
11016;SDS011;54687;50.800;6.772;2022-07-01T07:28:34;1.88;;;1.40;;
11016;SDS011;54687;50.800;6.772;2022-07-01T07:31:01;2.33;;;1.52;;
11016;SDS011;54687;50.800;6.772;2022-07-01T07:33:27;1.38;;;1.27;;
11016;SDS011;54687;50.800;6.772;2022-07-01T07:35:53;1.80;;;1.35;;
11016;SDS011;54687;50.800;6.772;2022-07-01T07:38:20;3.33;;;1.50;;
11016;SDS011;54687;50.800;6.772;2022-07-01T07:40:48;2.20;;;1.40;;
11016;SDS011;54687;50.800;6.772;2022-07-01T07:43:14;1.70;;;1.42;;
11016;SDS011;54687;50.800;6.772;2022-07-01T07:45:41;1.90;;;1.42;;
11016;SDS011;54687;50.800;6.772;2022-07-01T07:48:07;1.95;;;1.42;;
11016;SDS011;54687;50.800;6.772;2022-07-01T07:50:34;1.83;;;1.67;;
11016;SDS011;54687;50.800;6.772;2022-07-01T07:53:01;2.33;;;1.58;;
11016;SDS011;54687;50.800;6.772;2022-07-01T07:55:28;1.95;;;1.50;;
11016;SDS011;54687;50.800;6.772;2022-07-01T07:57:55;3.90;;;1.70;;
11016;SDS011;54687;50.800;6.772;2022-07-01T08:00:22;1.67;;;1.50;;
11016;SDS011;54687;50.800;6.772;2022-07-01T08:02:48;2.83;;;1.73;;
11016;SDS011;54687;50.800;6.772;2022-07-01T08:05:15;4.68;;;1.77;;
11016;SDS011;54687;50.800;6.772;2022-07-01T08:07:42;3.78;;;1.60;;
11016;SDS011;54687;50.800;6.772;2022-07-01T08:10:09;4.43;;;1.52;;
11016;SDS011;54687;50.800;6.772;2022-07-01T08:12:36;4.05;;;1.80;;
11016;SDS011;54687;50.800;6.772;2022-07-01T08:15:05;3.97;;;1.90;;
11016;SDS011;54687;50.800;6.772;2022-07-01T08:17:31;2.53;;;1.50;;
11016;SDS011;54687;50.800;6.772;2022-07-01T08:19:58;2.22;;;2.03;;
11016;SDS011;54687;50.800;6.772;2022-07-01T08:22:24;2.88;;;2.58;;
11016;SDS011;54687;50.800;6.772;2022-07-01T08:24:51;2.08;;;1.60;;
11016;SDS011;54687;50.800;6.772;2022-07-01T08:27:17;2.28;;;1.92;;
11016;SDS011;54687;50.800;6.772;2022-07-01T08:29:44;2.03;;;1.70;;
11016;SDS011;54687;50.800;6.772;2022-07-01T08:32:12;2.55;;;1.63;;
11016;SDS011;54687;50.800;6.772;2022-07-01T08:34:38;3.55;;;1.30;;
11016;SDS011;54687;50.800;6.772;2022-07-01T08:37:04;1.83;;;1.48;;
11016;SDS011;54687;50.800;6.772;2022-07-01T08:39:31;1.58;;;1.48;;
11016;SDS011;54687;50.800;6.772;2022-07-01T08:41:57;2.00;;;1.70;;
11016;SDS011;54687;50.800;6.772;2022-07-01T08:44:24;2.67;;;1.65;;
11016;SDS011;54687;50.800;6.772;2022-07-01T08:46:51;1.90;;;1.50;;
11016;SDS011;54687;50.800;6.772;2022-07-01T08:49:19;1.60;;;1.50;;
11016;SDS011;54687;50.800;6.772;2022-07-01T08:51:47;2.28;;;1.40;;
11016;SDS011;54687;50.800;6.772;2022-07-01T08:54:13;5.88;;;2.80;;
11016;SDS011;54687;50.800;6.772;2022-07-01T08:56:40;5.45;;;1.70;;
11016;SDS011;54687;50.800;6.772;2022-07-01T08:59:10;2.28;;;1.73;;
11016;SDS011;54687;50.800;6.772;2022-07-01T09:01:38;1.83;;;1.58;;
11016;SDS011;54687;50.800;6.772;2022-07-01T09:04:12;1.98;;;1.60;;
11016;SDS011;54687;50.800;6.772;2022-07-01T09:06:40;2.88;;;1.70;;
11016;SDS011;54687;50.800;6.772;2022-07-01T09:09:10;3.28;;;1.67;;
11016;SDS011;54687;50.800;6.772;2022-07-01T09:11:38;3.00;;;2.38;;
11016;SDS011;54687;50.800;6.772;2022-07-01T09:14:10;4.35;;;2.55;;
11016;SDS011;54687;50.800;6.772;2022-07-01T09:16:40;2.10;;;2.00;;
11016;SDS011;54687;50.800;6.772;2022-07-01T09:19:07;3.13;;;1.88;;
11016;SDS011;54687;50.800;6.772;2022-07-01T09:21:33;1.92;;;1.60;;
11016;SDS011;54687;50.800;6.772;2022-07-01T09:24:03;2.22;;;1.73;;
11016;SDS011;54687;50.800;6.772;2022-07-01T09:26:30;4.18;;;1.73;;
11016;SDS011;54687;50.800;6.772;2022-07-01T09:28:57;1.60;;;1.50;;
11016;SDS011;54687;50.800;6.772;2022-07-01T09:31:29;3.78;;;1.83;;
11016;SDS011;54687;50.800;6.772;2022-07-01T09:34:04;1.77;;;1.50;;
11016;SDS011;54687;50.800;6.772;2022-07-01T09:36:31;2.20;;;1.48;;
11016;SDS011;54687;50.800;6.772;2022-07-01T09:39:03;1.50;;;1.40;;
11016;SDS011;54687;50.800;6.772;2022-07-01T09:41:34;2.45;;;1.60;;
11016;SDS011;54687;50.800;6.772;2022-07-01T09:44:03;1.65;;;1.50;;
11016;SDS011;54687;50.800;6.772;2022-07-01T09:46:29;2.25;;;1.77;;
11016;SDS011;54687;50.800;6.772;2022-07-01T09:48:56;1.42;;;1.33;;
11016;SDS011;54687;50.800;6.772;2022-07-01T09:51:22;3.10;;;1.40;;
11016;SDS011;54687;50.800;6.772;2022-07-01T09:53:49;2.05;;;1.40;;
11016;SDS011;54687;50.800;6.772;2022-07-01T09:56:17;3.53;;;1.83;;
11016;SDS011;54687;50.800;6.772;2022-07-01T09:58:43;2.25;;;1.65;;
11016;SDS011;54687;50.800;6.772;2022-07-01T10:01:09;1.90;;;1.70;;
11016;SDS011;54687;50.800;6.772;2022-07-01T10:03:37;2.40;;;1.60;;
11016;SDS011;54687;50.800;6.772;2022-07-01T10:06:08;1.85;;;1.60;;
11016;SDS011;54687;50.800;6.772;2022-07-01T10:08:50;2.78;;;1.48;;
11016;SDS011;54687;50.800;6.772;2022-07-01T10:14:07;2.50;;;1.80;;
11016;SDS011;54687;50.800;6.772;2022-07-01T10:16:34;1.73;;;1.60;;
11016;SDS011;54687;50.800;6.772;2022-07-01T10:19:06;2.17;;;1.90;;
11016;SDS011;54687;50.800;6.772;2022-07-01T10:21:56;5.40;;;3.25;;
11016;SDS011;54687;50.800;6.772;2022-07-01T10:24:25;4.45;;;2.70;;
11016;SDS011;54687;50.800;6.772;2022-07-01T10:26:52;6.25;;;4.50;;
11016;SDS011;54687;50.800;6.772;2022-07-01T10:29:29;2.17;;;1.98;;
11016;SDS011;54687;50.800;6.772;2022-07-01T10:31:59;1.60;;;1.50;;
11016;SDS011;54687;50.800;6.772;2022-07-01T10:34:29;1.98;;;1.60;;
11016;SDS011;54687;50.800;6.772;2022-07-01T10:37:00;1.90;;;1.50;;
11016;SDS011;54687;50.800;6.772;2022-07-01T10:39:27;4.85;;;1.60;;
11016;SDS011;54687;50.800;6.772;2022-07-01T10:42:00;3.33;;;1.92;;
11016;SDS011;54687;50.800;6.772;2022-07-01T10:44:28;4.15;;;2.15;;
11016;SDS011;54687;50.800;6.772;2022-07-01T10:47:01;2.33;;;1.92;;
11016;SDS011;54687;50.800;6.772;2022-07-01T10:52:14;3.47;;;2.20;;
11016;SDS011;54687;50.800;6.772;2022-07-01T10:54:49;2.85;;;1.52;;
11016;SDS011;54687;50.800;6.772;2022-07-01T10:57:18;2.35;;;1.65;;
11016;SDS011;54687;50.800;6.772;2022-07-01T11:03:11;5.70;;;1.60;;
11016;SDS011;54687;50.800;6.772;2022-07-01T11:05:38;1.85;;;1.50;;
11016;SDS011;54687;50.800;6.772;2022-07-01T11:08:05;1.23;;;0.93;;
11016;SDS011;54687;50.800;6.772;2022-07-01T11:10:32;2.00;;;1.30;;
11016;SDS011;54687;50.800;6.772;2022-07-01T11:12:59;1.50;;;1.35;;
11016;SDS011;54687;50.800;6.772;2022-07-01T11:15:26;1.27;;;1.17;;
11016;SDS011;54687;50.800;6.772;2022-07-01T11:17:52;1.52;;;1.23;;
11016;SDS011;54687;50.800;6.772;2022-07-01T11:20:23;1.58;;;1.23;;
11016;SDS011;54687;50.800;6.772;2022-07-01T11:22:50;1.38;;;0.93;;
11016;SDS011;54687;50.800;6.772;2022-07-01T11:25:17;1.92;;;0.90;;
11016;SDS011;54687;50.800;6.772;2022-07-01T11:27:45;1.90;;;1.48;;
11016;SDS011;54687;50.800;6.772;2022-07-01T11:30:12;2.88;;;1.83;;
11016;SDS011;54687;50.800;6.772;2022-07-01T11:32:40;1.48;;;1.35;;
11016;SDS011;54687;50.800;6.772;2022-07-01T11:35:08;2.17;;;1.45;;
11016;SDS011;54687;50.800;6.772;2022-07-01T11:38:05;1.55;;;1.30;;
11016;SDS011;54687;50.800;6.772;2022-07-01T11:40:49;2.80;;;1.90;;
11016;SDS011;54687;50.800;6.772;2022-07-01T11:43:19;2.28;;;1.30;;
11016;SDS011;54687;50.800;6.772;2022-07-01T11:45:46;1.88;;;1.30;;
11016;SDS011;54687;50.800;6.772;2022-07-01T11:48:13;3.30;;;1.60;;
11016;SDS011;54687;50.800;6.772;2022-07-01T11:50:53;1.20;;;1.10;;
11016;SDS011;54687;50.800;6.772;2022-07-01T11:53:21;3.55;;;2.50;;
11016;SDS011;54687;50.800;6.772;2022-07-01T11:55:47;1.70;;;1.50;;
11016;SDS011;54687;50.800;6.772;2022-07-01T11:58:14;1.98;;;1.70;;
11016;SDS011;54687;50.800;6.772;2022-07-01T12:00:40;1.80;;;1.60;;
11016;SDS011;54687;50.800;6.772;2022-07-01T12:03:07;1.90;;;1.33;;
11016;SDS011;54687;50.800;6.772;2022-07-01T12:05:34;2.28;;;1.40;;
11016;SDS011;54687;50.800;6.772;2022-07-01T12:08:01;2.13;;;1.25;;
11016;SDS011;54687;50.800;6.772;2022-07-01T12:10:29;3.70;;;2.42;;
11016;SDS011;54687;50.800;6.772;2022-07-01T12:12:56;2.97;;;1.35;;
11016;SDS011;54687;50.800;6.772;2022-07-01T12:15:22;2.95;;;1.27;;
11016;SDS011;54687;50.800;6.772;2022-07-01T12:17:49;3.10;;;1.73;;
11016;SDS011;54687;50.800;6.772;2022-07-01T12:20:16;1.70;;;1.40;;
11016;SDS011;54687;50.800;6.772;2022-07-01T12:23:09;1.75;;;1.25;;
11016;SDS011;54687;50.800;6.772;2022-07-01T12:25:37;4.70;;;3.42;;
11016;SDS011;54687;50.800;6.772;2022-07-01T12:28:04;2.25;;;1.33;;
11016;SDS011;54687;50.800;6.772;2022-07-01T12:30:30;1.17;;;1.08;;
11016;SDS011;54687;50.800;6.772;2022-07-01T12:33:07;2.78;;;1.30;;
11016;SDS011;54687;50.800;6.772;2022-07-01T12:35:34;2.10;;;1.35;;
11016;SDS011;54687;50.800;6.772;2022-07-01T12:38:07;4.85;;;1.83;;
11016;SDS011;54687;50.800;6.772;2022-07-01T12:40:42;4.15;;;1.65;;
11016;SDS011;54687;50.800;6.772;2022-07-01T12:43:21;2.47;;;1.25;;
11016;SDS011;54687;50.800;6.772;2022-07-01T12:45:48;1.58;;;0.95;;
11016;SDS011;54687;50.800;6.772;2022-07-01T12:48:14;1.30;;;0.90;;
11016;SDS011;54687;50.800;6.772;2022-07-01T12:50:41;0.80;;;0.80;;
11016;SDS011;54687;50.800;6.772;2022-07-01T12:53:11;7.88;;;1.83;;
11016;SDS011;54687;50.800;6.772;2022-07-01T12:55:38;1.80;;;1.00;;
11016;SDS011;54687;50.800;6.772;2022-07-01T12:58:08;11.95;;;1.33;;
11016;SDS011;54687;50.800;6.772;2022-07-01T13:00:37;2.53;;;1.10;;
11016;SDS011;54687;50.800;6.772;2022-07-01T13:03:03;3.10;;;1.00;;
11016;SDS011;54687;50.800;6.772;2022-07-01T13:05:31;1.13;;;0.95;;
11016;SDS011;54687;50.800;6.772;2022-07-01T13:07:58;1.60;;;1.08;;
11016;SDS011;54687;50.800;6.772;2022-07-01T13:10:24;2.95;;;1.17;;
11016;SDS011;54687;50.800;6.772;2022-07-01T13:12:51;3.10;;;2.20;;
11016;SDS011;54687;50.800;6.772;2022-07-01T13:15:19;1.17;;;1.08;;
11016;SDS011;54687;50.800;6.772;2022-07-01T13:17:46;1.75;;;1.17;;
11016;SDS011;54687;50.800;6.772;2022-07-01T13:20:13;2.25;;;1.27;;
11016;SDS011;54687;50.800;6.772;2022-07-01T13:22:39;1.52;;;1.10;;
11016;SDS011;54687;50.800;6.772;2022-07-01T13:25:07;2.25;;;0.88;;
11016;SDS011;54687;50.800;6.772;2022-07-01T13:27:33;4.25;;;1.65;;
11016;SDS011;54687;50.800;6.772;2022-07-01T13:30:00;2.03;;;1.02;;
11016;SDS011;54687;50.800;6.772;2022-07-01T13:32:29;2.05;;;0.90;;
11016;SDS011;54687;50.800;6.772;2022-07-01T13:34:55;3.17;;;0.98;;
11016;SDS011;54687;50.800;6.772;2022-07-01T13:37:22;1.40;;;0.85;;
11016;SDS011;54687;50.800;6.772;2022-07-01T13:39:48;1.73;;;1.08;;
11016;SDS011;54687;50.800;6.772;2022-07-01T13:42:15;3.00;;;1.80;;
11016;SDS011;54687;50.800;6.772;2022-07-01T13:44:41;1.02;;;0.93;;
11016;SDS011;54687;50.800;6.772;2022-07-01T13:47:07;2.60;;;1.13;;
11016;SDS011;54687;50.800;6.772;2022-07-01T13:49:39;2.17;;;1.15;;
11016;SDS011;54687;50.800;6.772;2022-07-01T13:52:07;1.02;;;0.80;;
11016;SDS011;54687;50.800;6.772;2022-07-01T13:54:34;1.05;;;0.85;;
11016;SDS011;54687;50.800;6.772;2022-07-01T13:57:00;1.05;;;0.50;;
11016;SDS011;54687;50.800;6.772;2022-07-01T13:59:26;2.60;;;1.08;;
11016;SDS011;54687;50.800;6.772;2022-07-01T14:01:53;2.50;;;0.80;;
11016;SDS011;54687;50.800;6.772;2022-07-01T14:04:20;1.15;;;0.60;;
11016;SDS011;54687;50.800;6.772;2022-07-01T14:06:47;1.08;;;0.82;;
11016;SDS011;54687;50.800;6.772;2022-07-01T14:09:14;0.95;;;0.70;;
11016;SDS011;54687;50.800;6.772;2022-07-01T14:11:40;1.55;;;0.90;;
11016;SDS011;54687;50.800;6.772;2022-07-01T14:14:07;1.05;;;0.60;;
11016;SDS011;54687;50.800;6.772;2022-07-01T14:16:33;1.88;;;0.77;;
11016;SDS011;54687;50.800;6.772;2022-07-01T14:19:00;0.75;;;0.73;;
11016;SDS011;54687;50.800;6.772;2022-07-01T14:21:28;2.63;;;0.70;;
11016;SDS011;54687;50.800;6.772;2022-07-01T14:23:56;0.90;;;0.80;;
11016;SDS011;54687;50.800;6.772;2022-07-01T14:26:23;0.77;;;0.60;;
11016;SDS011;54687;50.800;6.772;2022-07-01T14:28:49;0.75;;;0.70;;
11016;SDS011;54687;50.800;6.772;2022-07-01T14:31:16;0.95;;;0.80;;
11016;SDS011;54687;50.800;6.772;2022-07-01T14:33:42;1.70;;;1.10;;
11016;SDS011;54687;50.800;6.772;2022-07-01T14:36:09;1.25;;;1.05;;
11016;SDS011;54687;50.800;6.772;2022-07-01T14:38:36;1.30;;;0.70;;
11016;SDS011;54687;50.800;6.772;2022-07-01T14:41:04;0.70;;;0.70;;
11016;SDS011;54687;50.800;6.772;2022-07-01T14:43:31;1.55;;;0.73;;
11016;SDS011;54687;50.800;6.772;2022-07-01T14:45:58;1.27;;;0.70;;
11016;SDS011;54687;50.800;6.772;2022-07-01T14:48:25;1.40;;;0.75;;
11016;SDS011;54687;50.800;6.772;2022-07-01T14:50:52;1.88;;;0.70;;
11016;SDS011;54687;50.800;6.772;2022-07-01T14:53:18;1.20;;;0.85;;
11016;SDS011;54687;50.800;6.772;2022-07-01T14:55:45;2.38;;;1.00;;
11016;SDS011;54687;50.800;6.772;2022-07-01T14:58:14;1.20;;;1.00;;
11016;SDS011;54687;50.800;6.772;2022-07-01T15:00:41;1.95;;;1.00;;